Time;durP1;ratioP1;P1;durP2;ratioP2;P2;SDS_P1;SDS_P2;PMS_P1;PMS_P2;Temp;Humidity;BMP_temperature;BMP_pressure;BME280_temperature;BME280_humidity;BME280_pressure;Samples;Min_cycle;Max_cycle;Signal;HPM_P1;HPM_P2
2021/06/29 00:00:14;;;;;;;4.30;3.90;;;20.20;99.90;;;;;;5111914;28;20506;-58
2021/06/29 00:02:41;;;;;;;4.53;4.10;;;20.30;99.90;;;;;;5102756;28;20898;-59
2021/06/29 00:05:09;;;;;;;4.77;4.27;;;20.30;99.90;;;;;;5111188;28;20518;-59
2021/06/29 00:07:36;;;;;;;4.90;4.50;;;20.30;99.90;;;;;;5114949;28;20444;-59
2021/06/29 00:10:07;;;;;;;6.33;4.10;;;20.20;99.90;;;;;;5114007;28;20883;-58
2021/06/29 00:12:34;;;;;;;4.80;4.40;;;20.10;99.90;;;;;;5115951;28;20519;-58
2021/06/29 00:15:01;;;;;;;4.20;3.67;;;20.00;99.90;;;;;;5110033;28;20442;-58
2021/06/29 00:17:28;;;;;;;5.10;4.60;;;20.10;99.90;;;;;;5113225;28;20502;-59
2021/06/29 00:19:55;;;;;;;8.30;4.40;;;20.00;99.90;;;;;;5115561;28;20860;-59
2021/06/29 00:22:22;;;;;;;5.13;4.73;;;20.00;99.90;;;;;;5099622;28;20526;-60
2021/06/29 00:24:49;;;;;;;6.30;4.37;;;20.00;99.90;;;;;;5104201;28;20476;-59
2021/06/29 00:27:18;;;;;;;8.07;4.27;;;20.00;99.90;;;;;;5115734;28;20448;-58
2021/06/29 00:29:45;;;;;;;5.63;4.50;;;20.00;99.90;;;;;;5115769;28;20857;-59
2021/06/29 00:32:12;;;;;;;7.00;5.77;;;19.60;99.90;;;;;;5115328;28;20469;-61
2021/06/29 00:34:39;;;;;;;6.33;5.60;;;19.10;99.90;;;;;;5115527;28;20453;-58
2021/06/29 00:37:06;;;;;;;8.10;6.00;;;18.80;99.90;;;;;;5115646;28;20972;-58
2021/06/29 00:39:33;;;;;;;6.17;5.57;;;18.70;99.90;;;;;;5115629;28;20437;-59
2021/06/29 00:42:00;;;;;;;6.40;5.80;;;18.90;99.90;;;;;;5115422;28;20534;-59
2021/06/29 00:44:28;;;;;;;5.67;5.17;;;18.70;99.90;;;;;;5115600;28;20488;-59
2021/06/29 00:46:57;;;;;;;6.53;5.77;;;18.60;99.90;;;;;;5115529;28;20448;-59
2021/06/29 00:49:24;;;;;;;6.33;5.73;;;18.70;99.90;;;;;;5115210;28;20479;-59
2021/06/29 00:51:51;;;;;;;6.00;5.40;;;18.90;99.90;;;;;;5114748;28;20461;-60
2021/06/29 00:54:20;;;;;;;5.73;5.23;;;19.10;99.90;;;;;;5115493;28;20441;-59
2021/06/29 00:56:47;;;;;;;4.90;4.50;;;19.20;99.90;;;;;;5115379;28;20452;-58
2021/06/29 00:59:14;;;;;;;4.90;4.50;;;19.30;99.90;;;;;;5115462;28;20445;-59
2021/06/29 01:01:42;;;;;;;5.17;4.67;;;19.30;99.90;;;;;;5115012;28;20974;-59
2021/06/29 01:04:09;;;;;;;4.80;4.40;;;19.40;99.90;;;;;;5115057;28;20480;-58
2021/06/29 01:06:39;;;;;;;3.87;3.57;;;19.40;99.90;;;;;;5114917;28;20505;-59
2021/06/29 01:09:07;;;;;;;4.20;3.90;;;19.10;99.90;;;;;;5115154;28;20448;-60
2021/06/29 01:11:37;;;;;;;3.80;3.50;;;19.20;99.90;;;;;;5114780;28;20548;-59
2021/06/29 01:14:11;;;;;;;3.83;3.53;;;19.30;99.90;;;;;;5115155;28;20520;-58
2021/06/29 01:16:38;;;;;;;4.93;3.73;;;19.50;99.90;;;;;;5114968;28;20535;-59
2021/06/29 01:19:07;;;;;;;4.13;3.83;;;19.50;99.90;;;;;;5113992;28;20452;-59
2021/06/29 01:21:38;;;;;;;5.40;4.90;;;19.50;99.90;;;;;;5113708;28;20479;-59
2021/06/29 01:24:08;;;;;;;5.17;4.77;;;19.80;99.90;;;;;;5114388;28;21047;-59
2021/06/29 01:26:43;;;;;;;5.50;5.00;;;19.70;99.90;;;;;;5114693;28;20453;-58
2021/06/29 01:29:10;;;;;;;7.73;5.20;;;19.60;99.90;;;;;;5114124;28;20474;-59
2021/06/29 01:31:37;;;;;;;5.40;4.90;;;19.50;99.90;;;;;;5114610;28;20526;-59
2021/06/29 01:34:05;;;;;;;7.53;5.10;;;19.50;99.90;;;;;;5114507;28;20436;-59
2021/06/29 01:36:38;;;;;;;8.63;5.57;;;19.50;99.90;;;;;;5114577;28;20476;-59
2021/06/29 01:39:08;;;;;;;6.43;5.83;;;19.40;99.90;;;;;;5114441;28;20442;-59
2021/06/29 01:41:36;;;;;;;6.47;5.57;;;19.30;99.90;;;;;;5113938;28;20488;-58
2021/06/29 01:44:07;;;;;;;5.60;5.20;;;19.30;99.90;;;;;;5114599;28;20616;-59
2021/06/29 01:46:37;;;;;;;6.00;5.50;;;19.30;99.90;;;;;;5114421;28;20449;-59
2021/06/29 01:49:04;;;;;;;5.50;5.00;;;19.50;99.90;;;;;;5114092;28;20449;-59
2021/06/29 01:51:35;;;;;;;6.03;5.20;;;19.40;99.90;;;;;;5114076;28;20468;-59
2021/06/29 01:54:02;;;;;;;5.30;4.80;;;19.50;99.90;;;;;;5114062;28;20441;-59
2021/06/29 01:56:36;;;;;;;5.90;5.40;;;19.50;99.90;;;;;;5113839;28;20966;-59
2021/06/29 01:59:09;;;;;;;5.17;4.80;;;19.50;99.90;;;;;;5114356;28;20448;-59
2021/06/29 02:01:38;;;;;;;6.07;5.57;;;19.50;99.90;;;;;;5113379;28;20586;-59
2021/06/29 02:04:05;;;;;;;6.93;5.80;;;19.40;99.90;;;;;;5114139;28;20530;-60
2021/06/29 02:06:32;;;;;;;6.10;5.37;;;19.20;99.90;;;;;;5113901;28;20947;-58
2021/06/29 02:08:59;;;;;;;5.40;4.90;;;19.20;99.90;;;;;;5113847;28;20935;-60
2021/06/29 02:11:26;;;;;;;8.43;5.60;;;19.30;99.90;;;;;;5113282;28;21059;-59
2021/06/29 02:13:55;;;;;;;6.27;5.67;;;19.30;99.90;;;;;;5113979;28;20452;-59
2021/06/29 02:16:22;;;;;;;6.57;5.67;;;19.30;99.90;;;;;;5113607;28;20445;-60
2021/06/29 02:18:48;;;;;;;6.53;5.37;;;19.30;99.90;;;;;;5109817;28;20446;-59
2021/06/29 02:21:15;;;;;;;6.37;5.77;;;19.00;99.90;;;;;;5093219;28;20478;-58
2021/06/29 02:23:42;;;;;;;6.90;5.33;;;19.10;99.90;;;;;;5093075;28;20860;-59
2021/06/29 02:26:09;;;;;;;6.00;5.40;;;19.10;99.90;;;;;;5093468;28;20875;-59
2021/06/29 02:28:36;;;;;;;5.53;4.80;;;19.10;99.90;;;;;;5104706;28;20453;-60
2021/06/29 02:31:05;;;;;;;5.20;4.80;;;19.20;99.90;;;;;;5112820;28;20465;-59
2021/06/29 02:33:32;;;;;;;5.00;4.60;;;19.20;99.90;;;;;;5113110;28;20502;-58
2021/06/29 02:35:59;;;;;;;5.77;5.27;;;19.20;99.90;;;;;;5113416;28;20453;-60
2021/06/29 02:38:26;;;;;;;5.40;4.87;;;19.10;99.90;;;;;;5113336;28;20502;-59
2021/06/29 02:40:54;;;;;;;4.97;4.57;;;18.90;99.90;;;;;;5112499;28;21047;-59
2021/06/29 02:43:21;;;;;;;6.47;5.87;;;18.90;99.90;;;;;;5112176;28;20449;-59
2021/06/29 02:45:48;;;;;;;8.10;5.80;;;18.80;99.90;;;;;;5113123;28;20950;-59
2021/06/29 02:48:16;;;;;;;7.70;6.67;;;18.80;99.90;;;;;;5113143;28;20502;-59
2021/06/29 02:50:44;;;;;;;6.70;5.63;;;18.90;99.90;;;;;;5113122;28;20448;-59
2021/06/29 02:53:10;;;;;;;5.70;5.20;;;18.80;99.90;;;;;;5110678;28;20452;-59
2021/06/29 02:55:37;;;;;;;7.07;5.57;;;18.90;99.90;;;;;;5096711;28;20870;-59
2021/06/29 02:58:05;;;;;;;7.00;6.23;;;18.70;99.90;;;;;;5113006;28;20996;-59
2021/06/29 03:00:32;;;;;;;6.70;6.13;;;18.50;99.90;;;;;;5111899;28;20520;-59
2021/06/29 03:02:58;;;;;;;7.67;5.47;;;18.60;99.90;;;;;;5111928;28;20546;-59
2021/06/29 03:05:27;;;;;;;5.50;5.00;;;18.70;99.90;;;;;;5112971;28;20489;-59
2021/06/29 03:07:54;;;;;;;6.23;5.63;;;18.80;99.90;;;;;;5112792;27;20479;-59
2021/06/29 03:10:21;;;;;;;6.03;5.53;;;18.80;99.90;;;;;;5109159;28;20450;-58
2021/06/29 03:12:48;;;;;;;5.23;4.83;;;18.80;99.90;;;;;;5094845;28;20522;-59
2021/06/29 03:15:15;;;;;;;6.10;5.50;;;18.80;99.90;;;;;;5112494;28;20494;-59
2021/06/29 03:17:42;;;;;;;6.20;4.87;;;18.80;99.90;;;;;;5112239;28;20461;-60
2021/06/29 03:20:11;;;;;;;6.37;5.63;;;18.90;99.90;;;;;;5098657;28;20966;-59
2021/06/29 03:22:40;;;;;;;5.70;5.20;;;19.00;99.90;;;;;;5091885;28;20473;-59
2021/06/29 03:25:08;;;;;;;5.67;5.17;;;19.10;99.90;;;;;;5102052;28;20476;-59
2021/06/29 03:27:35;;;;;;;5.73;5.23;;;19.10;99.90;;;;;;5112499;28;20445;-59
2021/06/29 03:30:02;;;;;;;5.73;5.17;;;18.90;99.90;;;;;;5111986;28;20513;-58
2021/06/29 03:32:29;;;;;;;6.30;5.70;;;18.90;99.90;;;;;;5110549;28;20464;-59
2021/06/29 03:34:56;;;;;;;6.17;5.57;;;18.80;99.90;;;;;;5108492;28;20441;-58
2021/06/29 03:37:23;;;;;;;6.10;5.30;;;18.80;99.90;;;;;;5112303;28;20502;-59
2021/06/29 03:39:51;;;;;;;6.43;5.83;;;18.90;99.90;;;;;;5109054;28;20449;-59
2021/06/29 03:42:18;;;;;;;6.50;5.90;;;18.90;99.90;;;;;;5111059;28;20484;-59
2021/06/29 03:44:45;;;;;;;5.77;5.27;;;18.80;99.90;;;;;;5112094;28;20550;-59
2021/06/29 03:47:12;;;;;;;5.80;5.30;;;18.80;99.90;;;;;;5111629;28;20449;-58
2021/06/29 03:49:39;;;;;;;7.93;5.63;;;18.90;99.90;;;;;;5092327;28;20478;-59
2021/06/29 03:52:06;;;;;;;7.77;6.20;;;18.90;99.90;;;;;;5099642;28;20513;-59
2021/06/29 03:54:33;;;;;;;9.60;6.07;;;18.80;99.90;;;;;;5107900;28;20449;-58
2021/06/29 03:57:01;;;;;;;6.30;5.70;;;18.90;99.90;;;;;;5101062;28;20441;-59
2021/06/29 03:59:28;;;;;;;6.27;5.67;;;18.90;99.90;;;;;;5105516;28;20895;-58
2021/06/29 04:01:55;;;;;;;5.40;5.00;;;19.10;99.90;;;;;;5111494;28;20532;-59
2021/06/29 04:04:22;;;;;;;5.30;4.80;;;19.20;99.90;;;;;;5112037;28;20481;-59
2021/06/29 04:06:49;;;;;;;4.67;4.27;;;19.10;99.90;;;;;;5112053;28;20445;-59
2021/06/29 04:09:16;;;;;;;4.20;3.80;;;19.20;99.90;;;;;;5111927;28;20942;-59
2021/06/29 04:11:43;;;;;;;6.73;4.10;;;19.20;99.90;;;;;;5111536;28;20480;-58
2021/06/29 04:14:11;;;;;;;4.10;3.80;;;19.10;99.90;;;;;;5111599;28;20513;-59
2021/06/29 04:16:39;;;;;;;4.00;3.70;;;19.10;99.90;;;;;;5111377;28;20955;-58
2021/06/29 04:19:06;;;;;;;4.30;3.30;;;18.90;99.90;;;;;;5112041;28;20441;-59
2021/06/29 04:21:33;;;;;;;4.17;3.40;;;18.80;99.90;;;;;;5109723;28;20461;-59
2021/06/29 04:24:05;;;;;;;3.77;3.47;;;18.90;99.90;;;;;;5097369;28;20442;-59
2021/06/29 04:26:33;;;;;;;4.00;3.60;;;18.90;99.90;;;;;;5099342;28;20498;-58
2021/06/29 04:29:00;;;;;;;4.37;3.97;;;18.80;99.90;;;;;;5111132;28;20490;-59
2021/06/29 04:31:29;;;;;;;4.30;4.00;;;18.90;99.90;;;;;;5111441;28;20530;-58
2021/06/29 04:33:56;;;;;;;6.03;4.67;;;18.90;99.90;;;;;;5106845;28;20444;-59
2021/06/29 04:36:23;;;;;;;4.80;4.23;;;18.70;99.90;;;;;;5091419;28;20445;-59
2021/06/29 04:38:50;;;;;;;6.40;4.23;;;18.60;99.90;;;;;;5100900;28;20441;-59
2021/06/29 04:41:17;;;;;;;4.73;4.20;;;18.70;99.90;;;;;;5110794;28;20477;-59
2021/06/29 04:43:45;;;;;;;4.63;4.27;;;18.80;99.90;;;;;;5111658;28;20494;-59
2021/06/29 04:46:13;;;;;;;5.20;4.57;;;18.60;99.90;;;;;;5107826;28;21011;-59
2021/06/29 04:48:42;;;;;;;5.30;4.30;;;18.60;99.90;;;;;;5091237;28;20450;-58
2021/06/29 04:51:09;;;;;;;6.20;5.30;;;18.60;99.90;;;;;;5091066;28;20469;-58
2021/06/29 04:53:36;;;;;;;8.13;5.27;;;18.70;99.90;;;;;;5093745;28;20454;-58
2021/06/29 04:56:16;;;;;;;7.93;5.90;;;18.80;99.90;;;;;;5094895;28;20450;-59
2021/06/29 04:58:43;;;;;;;5.90;5.20;;;18.60;99.90;;;;;;5106105;28;20448;-59
2021/06/29 05:01:10;;;;;;;5.37;4.67;;;18.50;99.90;;;;;;5111719;28;20477;-59
2021/06/29 05:03:37;;;;;;;5.50;4.93;;;18.50;99.90;;;;;;5095222;28;20943;-58
2021/06/29 05:06:06;;;;;;;5.53;4.87;;;18.60;99.90;;;;;;5107411;28;20476;-59
2021/06/29 05:08:33;;;;;;;4.40;4.00;;;18.60;99.90;;;;;;5115351;28;20494;-59
2021/06/29 05:10:59;;;;;;;6.10;5.20;;;18.50;99.90;;;;;;5114461;28;20514;-59
2021/06/29 05:13:26;;;;;;;7.70;6.27;;;18.60;99.90;;;;;;5103823;28;20445;-59
2021/06/29 05:15:53;;;;;;;8.67;7.77;;;18.50;99.90;;;;;;5115081;28;20506;-59
2021/06/29 05:18:20;;;;;;;7.00;6.30;;;18.50;99.90;;;;;;5113369;28;20498;-58
2021/06/29 05:20:47;;;;;;;7.63;5.83;;;18.40;99.90;;;;;;5114263;28;20453;-59
2021/06/29 05:23:16;;;;;;;4.77;3.90;;;18.30;99.90;;;;;;5106590;28;20450;-60
2021/06/29 05:25:43;;;;;;;4.70;3.97;;;18.40;99.90;;;;;;5107653;28;20481;-58
2021/06/29 05:28:10;;;;;;;4.03;3.73;;;18.50;99.90;;;;;;5111838;28;20491;-59
2021/06/29 05:30:37;;;;;;;6.87;3.93;;;18.40;99.90;;;;;;5112104;28;20520;-59
2021/06/29 05:33:04;;;;;;;3.57;3.27;;;18.60;99.90;;;;;;5114062;28;20811;-57
2021/06/29 05:35:31;;;;;;;3.40;3.10;;;18.70;99.90;;;;;;5095741;28;20939;-58
2021/06/29 05:37:59;;;;;;;2.97;2.77;;;18.70;99.90;;;;;;5099426;28;20440;-57
2021/06/29 05:40:28;;;;;;;3.30;3.00;;;18.80;99.90;;;;;;5114706;28;20449;-57
2021/06/29 05:42:55;;;;;;;3.70;3.30;;;19.10;99.90;;;;;;5114009;28;20906;-58
2021/06/29 05:45:22;;;;;;;5.43;3.60;;;19.50;99.90;;;;;;5107326;28;20554;-57
2021/06/29 05:47:50;;;;;;;5.07;3.50;;;19.80;99.90;;;;;;5106927;28;20874;-57
2021/06/29 05:50:17;;;;;;;4.90;3.40;;;19.80;99.90;;;;;;5112063;28;20450;-57
2021/06/29 05:52:45;;;;;;;4.73;3.30;;;19.80;99.90;;;;;;5113123;28;20473;-58
2021/06/29 05:55:12;;;;;;;4.47;3.67;;;20.20;99.90;;;;;;5104190;28;20528;-57
2021/06/29 05:57:41;;;;;;;3.40;3.07;;;20.20;99.90;;;;;;5104154;28;21020;-58
2021/06/29 06:00:11;;;;;;;2.93;2.73;;;20.20;99.90;;;;;;5099790;28;20454;-57
2021/06/29 06:02:39;;;;;;;2.90;2.70;;;20.20;99.90;;;;;;5107337;28;20518;-58
2021/06/29 06:05:07;;;;;;;3.87;3.13;;;20.10;99.90;;;;;;5108150;28;20503;-59
2021/06/29 06:07:34;;;;;;;4.37;2.70;;;19.90;99.90;;;;;;5111190;28;20473;-58
2021/06/29 06:10:01;;;;;;;3.80;2.53;;;19.60;99.90;;;;;;5105324;28;20487;-57
2021/06/29 06:12:28;;;;;;;4.23;2.40;;;19.40;99.90;;;;;;5094125;28;20519;-58
2021/06/29 06:14:57;;;;;;;3.20;2.57;;;19.30;99.90;;;;;;5107913;28;20866;-57
2021/06/29 06:17:26;;;;;;;3.27;2.97;;;19.10;99.90;;;;;;5110114;28;20453;-57
2021/06/29 06:19:53;;;;;;;4.80;3.03;;;18.90;99.90;;;;;;5113585;28;20456;-57
2021/06/29 06:22:20;;;;;;;3.40;2.97;;;19.10;99.90;;;;;;5110745;28;20472;-58
2021/06/29 06:24:47;;;;;;;2.67;2.47;;;19.50;99.90;;;;;;5100447;28;20995;-57
2021/06/29 06:27:16;;;;;;;5.43;2.70;;;19.80;99.90;;;;;;5093220;28;20507;-57
2021/06/29 06:29:43;;;;;;;4.95;2.83;;;20.00;99.90;;;;;;5116943;22;20513;-52
2021/06/29 06:32:12;;;;;;;1.80;1.70;;;20.70;99.90;;;;;;5088128;28;20200;-51
2021/06/29 06:34:39;;;;;;;3.13;1.70;;;21.90;99.90;;;;;;5092822;28;20450;-50
2021/06/29 06:37:06;;;;;;;2.63;1.73;;;23.00;99.90;;;;;;5092359;28;20446;-52
2021/06/29 06:39:33;;;;;;;1.77;1.67;;;24.00;99.90;;;;;;5092583;28;20473;-51
2021/06/29 06:42:00;;;;;;;3.00;1.80;;;24.20;99.90;;;;;;5092728;28;20446;-51
2021/06/29 06:44:28;;;;;;;6.00;2.30;;;24.50;99.90;;;;;;5072863;28;20508;-51
2021/06/29 06:46:55;;;;;;;1.83;1.47;;;24.80;99.90;;;;;;5092727;28;20500;-51
2021/06/29 06:49:23;;;;;;;1.77;1.50;;;25.00;99.90;;;;;;5092600;28;20530;-51
2021/06/29 06:51:50;;;;;;;10.90;2.60;;;25.50;99.90;;;;;;5092120;28;20939;-51
2021/06/29 06:54:17;;;;;;;1.70;1.60;;;25.30;99.90;;;;;;5092680;28;20515;-51
2021/06/29 06:56:44;;;;;;;1.87;1.30;;;25.10;99.90;;;;;;5050818;28;21108;-52
2021/06/29 06:59:11;;;;;;;2.60;1.60;;;24.80;99.90;;;;;;5030021;28;20476;-52
2021/06/29 07:01:39;;;;;;;3.00;1.40;;;25.10;99.90;;;;;;5031717;28;20448;-52
2021/06/29 07:04:06;;;;;;;1.73;1.63;;;25.50;99.90;;;;;;5029305;28;20457;-52
2021/06/29 07:06:38;;;;;;;1.53;1.43;;;26.10;99.90;;;;;;5016983;28;21062;-52
2021/06/29 07:09:06;;;;;;;2.97;1.60;;;26.50;99.90;;;;;;5016764;28;20519;-51
2021/06/29 07:11:33;;;;;;;1.87;1.60;;;26.20;99.90;;;;;;5025036;28;20457;-52
2021/06/29 07:14:00;;;;;;;1.60;1.50;;;25.00;99.90;;;;;;5024600;28;20456;-51
2021/06/29 07:16:27;;;;;;;1.50;1.40;;;24.60;99.90;;;;;;5031219;28;20926;-53
2021/06/29 07:18:53;;;;;;;9.20;5.80;;;25.00;99.90;;;;;;5031214;28;20455;-52
2021/06/29 07:21:26;;;;;;;5.10;4.00;;;25.40;99.90;;;;;;5029063;28;21025;-52
2021/06/29 07:23:54;;;;;;;6.47;2.30;;;25.30;99.90;;;;;;5028016;28;20515;-51
2021/06/29 07:26:22;;;;;;;4.03;2.20;;;24.90;99.90;;;;;;5014124;28;20546;-51
2021/06/29 07:28:50;;;;;;;1.87;1.77;;;24.80;99.90;;;;;;5029893;28;20444;-51
2021/06/29 07:31:18;;;;;;;1.90;1.80;;;25.10;99.90;;;;;;5027226;28;20510;-53
2021/06/29 07:33:45;;;;;;;1.87;1.77;;;25.30;99.90;;;;;;5023955;28;20524;-51
2021/06/29 07:36:14;;;;;;;2.40;1.70;;;25.70;99.90;;;;;;5024626;28;20511;-51
2021/06/29 07:38:41;;;;;;;2.33;1.60;;;25.50;99.90;;;;;;5022222;28;20460;-52
2021/06/29 07:41:09;;;;;;;3.03;1.70;;;25.60;99.90;;;;;;5022160;28;20465;-52
2021/06/29 07:43:36;;;;;;;2.03;1.83;;;25.20;99.90;;;;;;5027493;28;20492;-51
2021/06/29 07:46:03;;;;;;;4.23;1.70;;;24.80;99.90;;;;;;5031329;28;21124;-53
2021/06/29 07:48:30;;;;;;;2.43;1.83;;;24.30;99.90;;;;;;5013041;28;20573;-51
2021/06/29 07:50:57;;;;;;;2.10;1.70;;;24.20;99.90;;;;;;5023623;28;20468;-52
2021/06/29 07:53:24;;;;;;;1.87;1.67;;;24.70;99.90;;;;;;5014919;28;20511;-51
2021/06/29 07:55:52;;;;;;;2.40;1.60;;;25.00;99.90;;;;;;5030405;28;20954;-52
2021/06/29 07:58:20;;;;;;;1.60;1.50;;;25.20;99.90;;;;;;5029807;28;20461;-52
2021/06/29 08:00:47;;;;;;;1.73;1.63;;;25.30;99.90;;;;;;5017541;28;20990;-52
2021/06/29 08:03:14;;;;;;;1.70;1.60;;;25.00;99.90;;;;;;5011355;28;20464;-52
2021/06/29 08:05:41;;;;;;;1.93;1.83;;;24.60;99.90;;;;;;5015098;28;20485;-52
2021/06/29 08:08:09;;;;;;;2.35;1.40;;;25.10;99.90;;;;;;5013729;28;20522;-52
2021/06/29 08:10:37;;;;;;;2.50;1.63;;;25.90;99.90;;;;;;5020218;28;20249;-52
2021/06/29 08:13:04;;;;;;;1.90;1.80;;;26.20;99.90;;;;;;5014728;28;20889;-51
2021/06/29 08:15:33;;;;;;;1.50;1.40;;;27.10;99.90;;;;;;5011485;28;20446;-52
2021/06/29 08:18:00;;;;;;;1.53;1.43;;;27.40;99.90;;;;;;5011490;28;20476;-52
2021/06/29 08:20:27;;;;;;;1.60;1.50;;;27.90;99.90;;;;;;5013518;28;21036;-52
2021/06/29 08:22:56;;;;;;;3.43;1.40;;;28.10;99.90;;;;;;5019322;28;20886;-51
2021/06/29 08:25:24;;;;;;;1.33;1.23;;;28.50;99.90;;;;;;5029544;28;20486;-52
2021/06/29 08:27:51;;;;;;;2.50;1.50;;;28.70;99.90;;;;;;5028262;28;20465;-51
2021/06/29 08:30:19;;;;;;;1.70;1.60;;;28.90;99.90;;;;;;5015508;28;20481;-52
2021/06/29 08:32:48;;;;;;;2.07;1.50;;;29.00;99.90;;;;;;5016158;28;20453;-52
2021/06/29 08:35:15;;;;;;;1.70;1.60;;;29.00;99.90;;;;;;5026112;28;20950;-51
2021/06/29 08:37:43;;;;;;;1.47;1.33;;;28.70;99.90;;;;;;5026205;28;20457;-53
2021/06/29 08:40:12;;;;;;;1.30;1.20;;;28.40;99.90;;;;;;5018099;28;20469;-52
2021/06/29 08:42:40;;;;;;;1.37;1.27;;;28.60;99.90;;;;;;5034806;28;20880;-52
2021/06/29 08:45:09;;;;;;;2.50;1.40;;;28.80;99.90;;;;;;5033616;28;21009;-51
2021/06/29 08:47:37;;;;;;;2.27;1.30;;;28.60;99.90;;;;;;5015956;28;20837;-52
2021/06/29 08:50:08;;;;;;;1.67;1.17;;;28.60;99.90;;;;;;5030839;28;20464;-53
2021/06/29 08:52:36;;;;;;;1.67;1.50;;;28.90;99.90;;;;;;5033482;28;20496;-52
2021/06/29 08:55:04;;;;;;;2.10;1.53;;;28.70;99.90;;;;;;5030489;28;20464;-52
2021/06/29 08:57:31;;;;;;;1.63;1.40;;;29.10;99.90;;;;;;5033686;28;20444;-51
2021/06/29 08:59:59;;;;;;;2.50;1.47;;;29.00;99.90;;;;;;5033510;28;20460;-53
2021/06/29 09:02:26;;;;;;;5.00;1.60;;;29.40;99.90;;;;;;5033394;28;20450;-52
2021/06/29 09:04:55;;;;;;;1.70;1.60;;;29.70;99.90;;;;;;5029378;28;20448;-55
2021/06/29 09:07:25;;;;;;;1.50;1.40;;;30.20;99.90;;;;;;5033103;28;20526;-53
2021/06/29 09:09:56;;;;;;;1.50;1.40;;;30.30;99.90;;;;;;5031445;28;20521;-53
2021/06/29 09:12:47;;;;;;;1.77;1.60;;;30.40;99.90;;;;;;5031192;28;21087;-54
2021/06/29 09:15:34;;;;;;;1.50;1.40;;;30.30;99.90;;;;;;5029394;28;20445;-54
2021/06/29 09:18:17;;;;;;;1.60;1.50;;;30.80;99.90;;;;;;5033391;28;20499;-55
2021/06/29 09:20:50;;;;;;;2.30;1.50;;;30.80;99.90;;;;;;5033134;28;20468;-53
2021/06/29 09:23:21;;;;;;;1.67;1.57;;;30.50;99.90;;;;;;5032702;28;20570;-54
2021/06/29 09:25:49;;;;;;;1.70;1.60;;;30.40;99.90;;;;;;5032123;28;20535;-55
2021/06/29 09:28:19;;;;;;;1.80;1.70;;;30.20;99.90;;;;;;5032246;28;20453;-54
2021/06/29 09:30:49;;;;;;;2.60;1.67;;;30.50;99.90;;;;;;5032576;28;20472;-54
2021/06/29 09:33:18;;;;;;;2.10;2.00;;;30.60;99.90;;;;;;5032972;28;20445;-55
2021/06/29 09:35:48;;;;;;;2.10;2.00;;;30.80;99.90;;;;;;5032592;28;20437;-55
2021/06/29 09:38:21;;;;;;;1.63;1.53;;;31.10;99.90;;;;;;5032452;28;20445;-54
2021/06/29 09:41:01;;;;;;;2.50;2.03;;;31.20;99.90;;;;;;5032160;28;20456;-54
2021/06/29 09:43:30;;;;;;;1.80;1.70;;;31.10;99.90;;;;;;5031484;28;20457;-54
2021/06/29 09:46:01;;;;;;;2.27;2.07;;;31.40;99.90;;;;;;5030348;28;21199;-53
2021/06/29 09:48:38;;;;;;;3.47;1.90;;;31.10;99.90;;;;;;5032403;28;20867;-55
2021/06/29 09:51:09;;;;;;;1.70;1.50;;;31.10;99.90;;;;;;5032183;28;20460;-57
2021/06/29 09:53:42;;;;;;;6.93;1.93;;;31.40;99.90;;;;;;5032589;28;20855;-54
2021/06/29 09:56:15;;;;;;;1.73;1.63;;;31.50;99.90;;;;;;5029838;28;20445;-55
2021/06/29 09:58:45;;;;;;;1.47;1.37;;;31.50;99.90;;;;;;5027897;28;20484;-55
2021/06/29 10:01:15;;;;;;;1.80;1.70;;;31.60;99.90;;;;;;5032350;28;20503;-56
2021/06/29 10:03:43;;;;;;;2.93;1.50;;;31.50;99.90;;;;;;5031945;28;20477;-57
2021/06/29 10:06:13;;;;;;;2.77;1.70;;;31.50;99.90;;;;;;5030363;28;20480;-55
2021/06/29 10:08:43;;;;;;;5.23;1.60;;;31.80;99.90;;;;;;5024293;28;20905;-54
2021/06/29 10:11:16;;;;;;;1.50;1.40;;;31.50;99.90;;;;;;5014105;28;20469;-54
2021/06/29 10:13:46;;;;;;;3.07;2.43;;;31.20;99.90;;;;;;5018469;28;20451;-55
2021/06/29 10:16:16;;;;;;;1.80;1.70;;;31.00;99.90;;;;;;5020308;28;20452;-54
2021/06/29 10:18:50;;;;;;;1.83;1.70;;;30.60;99.90;;;;;;5031630;28;20449;-53
2021/06/29 10:21:22;;;;;;;1.90;1.80;;;30.60;99.90;;;;;;5032407;28;20907;-57
2021/06/29 10:23:52;;;;;;;1.50;1.40;;;31.00;99.90;;;;;;5017201;28;20974;-54
2021/06/29 10:26:19;;;;;;;2.70;1.80;;;30.90;99.90;;;;;;5013088;28;20477;-54
2021/06/29 10:28:48;;;;;;;1.60;1.50;;;30.70;99.90;;;;;;5024001;28;20452;-55
2021/06/29 10:31:19;;;;;;;2.17;1.90;;;30.50;99.90;;;;;;5026657;28;20503;-54
2021/06/29 10:33:47;;;;;;;1.80;1.70;;;30.20;99.90;;;;;;5028741;28;20448;-53
2021/06/29 10:36:15;;;;;;;1.80;1.70;;;30.10;99.90;;;;;;5027374;28;20886;-54
2021/06/29 10:38:43;;;;;;;2.80;1.83;;;30.30;99.90;;;;;;5030860;28;20441;-54
2021/06/29 10:41:12;;;;;;;2.10;1.93;;;30.50;99.90;;;;;;5030990;28;20865;-54
2021/06/29 10:43:41;;;;;;;1.48;1.35;;;30.30;99.20;;;;;;5029116;28;20447;-55
2021/06/29 10:46:14;;;;;;;1.67;1.33;;;30.70;99.90;;;;;;5028221;28;20222;-53
2021/06/29 10:48:42;;;;;;;3.43;1.63;;;30.40;99.90;;;;;;5031318;28;20467;-54
2021/06/29 10:51:13;;;;;;;1.60;1.50;;;30.70;99.40;;;;;;5030810;28;20468;-55
2021/06/29 10:53:43;;;;;;;3.53;1.60;;;30.20;99.90;;;;;;5030759;28;20449;-54
2021/06/29 10:56:16;;;;;;;2.60;1.67;;;30.40;99.90;;;;;;5031250;28;20520;-54
2021/06/29 10:58:46;;;;;;;2.00;1.80;;;30.70;99.90;;;;;;5030957;28;20491;-54
2021/06/29 11:01:25;;;;;;;1.47;1.37;;;30.90;99.90;;;;;;5026123;28;20463;-54
2021/06/29 11:03:53;;;;;;;1.83;1.73;;;31.30;99.90;;;;;;5031129;28;20432;-54
2021/06/29 11:06:47;;;;;;;1.70;1.60;;;31.00;99.90;;;;;;5030920;28;20491;-54
2021/06/29 11:09:17;;;;;;;2.20;2.10;;;31.00;99.90;;;;;;4995464;28;20504;-54
2021/06/29 11:12:24;;;;;;;1.77;1.67;;;31.00;98.20;;;;;;5030731;28;20459;-54
2021/06/29 11:14:54;;;;;;;1.60;1.50;;;30.80;98.90;;;;;;5030937;28;20476;-53
2021/06/29 11:17:23;;;;;;;1.80;1.70;;;30.80;99.90;;;;;;5029994;28;20502;-53
2021/06/29 11:20:21;;;;;;;1.53;1.43;;;30.70;99.90;;;;;;5030540;28;20468;-55
2021/06/29 11:22:59;;;;;;;2.17;1.97;;;30.80;99.90;;;;;;5030281;28;20965;-54
2021/06/29 11:25:50;;;;;;;1.97;1.87;;;30.30;99.90;;;;;;5027647;28;20514;-54
2021/06/29 11:28:24;;;;;;;1.80;1.70;;;30.20;99.90;;;;;;5022373;28;20511;-54
2021/06/29 11:31:10;;;;;;;3.10;1.63;;;29.80;99.90;;;;;;5030368;28;20467;-54
2021/06/29 11:33:42;;;;;;;2.50;1.70;;;29.80;99.80;;;;;;5025871;28;20459;-53
2021/06/29 11:36:40;;;;;;;1.90;1.70;;;29.80;99.90;;;;;;5026560;28;20939;-54
2021/06/29 11:39:34;;;;;;;7.17;2.00;;;30.10;99.90;;;;;;5030288;28;20522;-53
2021/06/29 11:42:21;;;;;;;1.90;1.80;;;29.00;99.90;;;;;;5030290;28;20463;-54
2021/06/29 11:44:52;;;;;;;2.00;1.90;;;28.70;99.90;;;;;;5028182;28;20467;-54
2021/06/29 11:47:20;;;;;;;2.83;2.50;;;29.20;99.90;;;;;;5030102;28;20860;-52
2021/06/29 11:49:53;;;;;;;1.83;1.73;;;29.60;99.90;;;;;;5028125;28;20953;-51
2021/06/29 11:52:32;;;;;;;2.00;1.90;;;29.10;99.90;;;;;;5030143;28;20499;-52
2021/06/29 11:55:15;;;;;;;1.70;1.60;;;28.90;99.90;;;;;;5030075;28;20433;-52
2021/06/29 11:57:46;;;;;;;2.30;2.10;;;28.80;99.90;;;;;;5029061;28;20447;-51
2021/06/29 12:00:30;;;;;;;1.87;1.77;;;28.90;99.90;;;;;;5029786;28;20982;-51
2021/06/29 12:03:00;;;;;;;2.10;2.00;;;28.60;99.90;;;;;;5029423;28;20464;-52
2021/06/29 12:05:28;;;;;;;3.10;2.13;;;28.10;99.90;;;;;;5029423;28;20456;-51
2021/06/29 12:07:56;;;;;;;3.90;2.20;;;27.80;99.90;;;;;;5030060;28;20554;-51
2021/06/29 12:10:25;;;;;;;2.23;1.80;;;27.30;99.90;;;;;;5029861;28;20945;-51
2021/06/29 12:12:54;;;;;;;1.90;1.80;;;26.60;99.90;;;;;;5029623;28;21020;-50
2021/06/29 12:15:24;;;;;;;2.20;2.10;;;26.10;99.90;;;;;;5030256;28;20444;-52
2021/06/29 12:17:56;;;;;;;2.30;1.83;;;26.00;99.90;;;;;;5030197;28;20483;-51
2021/06/29 12:24:20;;;;;;;3.53;1.80;;;25.60;99.90;;;;;;5334203;22;20477;-52
2021/06/29 12:26:48;;;;;;;1.83;1.40;;;24.90;99.90;;;;;;5008722;28;21067;-51
2021/06/29 12:29:29;;;;;;;7.57;1.37;;;24.60;99.90;;;;;;5010093;28;20504;-51
2021/06/29 12:31:57;;;;;;;4.83;0.90;;;23.80;99.90;;;;;;5010474;28;20449;-50
2021/06/29 12:34:26;;;;;;;5.40;1.17;;;22.70;99.90;;;;;;4996560;28;20451;-50
2021/06/29 12:36:53;;;;;;;10.43;1.27;;;21.60;99.90;;;;;;4991986;28;20446;-50
2021/06/29 12:39:20;;;;;;;2.47;1.40;;;20.90;99.90;;;;;;4991281;28;20454;-49
2021/06/29 12:41:47;;;;;;;8.60;1.37;;;20.60;99.90;;;;;;4991792;28;20529;-51
2021/06/29 12:44:15;;;;;;;1.73;0.93;;;20.60;99.90;;;;;;4991669;28;20458;-49
2021/06/29 12:46:45;;;;;;;1.00;0.90;;;20.70;99.90;;;;;;4993082;28;20522;-49
2021/06/29 12:49:17;;;;;;;4.60;1.00;;;21.00;99.90;;;;;;5011205;28;20448;-50
2021/06/29 12:51:46;;;;;;;3.00;0.90;;;21.40;99.90;;;;;;5011176;28;20493;-50
2021/06/29 12:54:15;;;;;;;1.93;1.10;;;21.50;99.90;;;;;;5011076;28;20449;-48
2021/06/29 12:56:47;;;;;;;1.63;1.03;;;21.20;99.90;;;;;;5011374;28;20453;-49
2021/06/29 12:59:16;;;;;;;1.57;1.10;;;20.80;99.90;;;;;;5011082;28;20441;-49
2021/06/29 13:01:46;;;;;;;1.97;1.00;;;21.00;99.90;;;;;;5011041;28;21065;-50